Time;durP1;ratioP1;P1;durP2;ratioP2;P2;SDS_P1;SDS_P2;PMS_P1;PMS_P2;Temp;Humidity;BMP_temperature;BMP_pressure;BME280_temperature;BME280_humidity;BME280_pressure;Samples;Min_cycle;Max_cycle;Signal;HPM_P1;HPM_P2
2022/06/18 00:00:08;;;;;;;6.55;2.75;;;;;;;;;;5049156;28;20111;-71
2022/06/18 00:02:33;;;;;;;8.07;2.80;;;;;;;;;;5047053;28;20366;-71
2022/06/18 00:04:58;;;;;;;5.38;2.58;;;;;;;;;;5050616;28;20086;-71
2022/06/18 00:07:24;;;;;;;5.28;2.80;;;;;;;;;;5050433;28;20029;-71
2022/06/18 00:09:54;;;;;;;13.00;3.10;;;;;;;;;;5046022;28;20107;-71
2022/06/18 00:15:13;;;;;;;5.95;2.90;;;;;;;;;;5031881;28;20258;-71
2022/06/18 00:17:39;;;;;;;6.32;3.00;;;;;;;;;;5043863;28;20044;-71
2022/06/18 00:20:04;;;;;;;6.10;3.00;;;;;;;;;;5053084;28;20029;-71
2022/06/18 00:22:30;;;;;;;6.72;3.05;;;;;;;;;;5048381;28;20453;-71
2022/06/18 00:24:55;;;;;;;5.93;2.90;;;;;;;;;;5049471;28;20502;-71
2022/06/18 00:27:20;;;;;;;7.90;3.28;;;;;;;;;;5048430;28;20025;-71
2022/06/18 00:29:46;;;;;;;5.18;3.05;;;;;;;;;;5048821;28;20017;-71
2022/06/18 00:32:12;;;;;;;6.32;2.90;;;;;;;;;;5051190;28;20369;-71
2022/06/18 00:34:37;;;;;;;8.20;3.28;;;;;;;;;;5044509;28;20067;-71
2022/06/18 00:37:04;;;;;;;7.53;3.22;;;;;;;;;;5039215;28;20075;-71
2022/06/18 00:39:29;;;;;;;6.75;2.83;;;;;;;;;;5046535;28;20405;-71
2022/06/18 00:41:55;;;;;;;5.25;2.90;;;;;;;;;;5051604;28;20033;-71
2022/06/18 00:44:41;;;;;;;6.13;2.97;;;;;;;;;;5050339;28;20474;-71
2022/06/18 00:47:06;;;;;;;7.10;3.40;;;;;;;;;;5044436;28;20341;-71
2022/06/18 00:49:40;;;;;;;8.93;3.17;;;;;;;;;;5049459;28;20033;-71
2022/06/18 00:52:10;;;;;;;6.95;3.17;;;;;;;;;;5050285;28;20029;-71
2022/06/18 00:54:54;;;;;;;8.38;3.30;;;;;;;;;;5034185;28;20060;-71
2022/06/18 00:57:38;;;;;;;7.82;3.58;;;;;;;;;;5049916;28;20224;-71
2022/06/18 01:00:06;;;;;;;6.22;3.30;;;;;;;;;;5041812;28;20029;-71
2022/06/18 01:02:34;;;;;;;9.18;3.50;;;;;;;;;;5047236;28;20032;-69
2022/06/18 01:04:59;;;;;;;7.90;3.65;;;;;;;;;;5048886;28;20063;-70
2022/06/18 01:07:27;;;;;;;6.95;3.38;;;;;;;;;;5047830;28;20071;-69
2022/06/18 01:09:53;;;;;;;6.43;3.10;;;;;;;;;;5047290;28;20423;-69
2022/06/18 01:12:19;;;;;;;7.65;3.10;;;;;;;;;;5046121;28;20021;-69
2022/06/18 01:14:44;;;;;;;5.60;3.10;;;;;;;;;;5046505;28;20028;-69
2022/06/18 01:17:10;;;;;;;7.80;3.45;;;;;;;;;;5048749;28;20027;-69
2022/06/18 01:19:38;;;;;;;5.38;3.22;;;;;;;;;;5039462;28;20631;-68
2022/06/18 01:22:04;;;;;;;6.18;3.33;;;;;;;;;;5050498;28;20814;-69
2022/06/18 01:24:36;;;;;;;5.72;3.30;;;;;;;;;;5047876;28;20025;-69
2022/06/18 01:27:01;;;;;;;7.78;3.50;;;;;;;;;;5046654;28;20036;-69
2022/06/18 01:29:26;;;;;;;7.40;3.53;;;;;;;;;;5051345;28;20431;-69
2022/06/18 01:31:52;;;;;;;5.47;3.40;;;;;;;;;;5042998;28;20147;-69
2022/06/18 01:34:20;;;;;;;6.65;3.50;;;;;;;;;;5051689;28;20475;-69
2022/06/18 01:36:46;;;;;;;9.25;4.05;;;;;;;;;;5052360;28;20906;-69
2022/06/18 01:39:17;;;;;;;7.93;4.28;;;;;;;;;;5052562;28;20086;-69
2022/06/18 01:41:52;;;;;;;6.05;3.75;;;;;;;;;;5049587;28;20052;-68
2022/06/18 01:44:32;;;;;;;7.65;4.00;;;;;;;;;;5050540;28;20059;-69
2022/06/18 01:46:59;;;;;;;5.95;3.70;;;;;;;;;;5051523;28;20496;-69
2022/06/18 01:49:27;;;;;;;7.13;3.90;;;;;;;;;;5051201;28;20021;-69
2022/06/18 01:51:54;;;;;;;12.05;4.40;;;;;;;;;;5044622;28;20064;-69
2022/06/18 01:54:21;;;;;;;6.78;4.25;;;;;;;;;;5052306;28;20448;-69
2022/06/18 01:56:48;;;;;;;6.13;3.95;;;;;;;;;;5053011;28;20024;-69
2022/06/18 01:59:21;;;;;;;7.10;4.57;;;;;;;;;;5051519;28;20029;-69
2022/06/18 02:01:48;;;;;;;5.80;4.28;;;;;;;;;;5051279;28;20116;-68
2022/06/18 02:04:16;;;;;;;6.88;4.10;;;;;;;;;;5049552;28;20477;-68
2022/06/18 02:06:41;;;;;;;5.55;3.83;;;;;;;;;;5051436;28;20113;-69
2022/06/18 02:09:08;;;;;;;7.68;4.22;;;;;;;;;;5052595;28;20037;-69
2022/06/18 02:11:34;;;;;;;7.50;4.13;;;;;;;;;;5052296;28;20021;-69
2022/06/18 02:14:02;;;;;;;9.35;4.45;;;;;;;;;;5052801;28;20123;-69
2022/06/18 02:16:30;;;;;;;8.07;4.25;;;;;;;;;;5052587;28;20392;-69
2022/06/18 02:18:59;;;;;;;7.45;4.30;;;;;;;;;;5051619;28;20108;-69
2022/06/18 02:21:24;;;;;;;6.90;4.47;;;;;;;;;;5052350;28;20029;-69
2022/06/18 02:23:53;;;;;;;7.10;4.40;;;;;;;;;;5050330;28;20086;-69
2022/06/18 02:26:18;;;;;;;10.32;4.28;;;;;;;;;;5028354;28;20033;-69
2022/06/18 02:28:44;;;;;;;9.97;4.30;;;;;;;;;;5051097;28;20051;-69
2022/06/18 02:31:18;;;;;;;7.18;4.40;;;;;;;;;;5050950;28;20763;-69
2022/06/18 02:33:47;;;;;;;9.23;4.78;;;;;;;;;;5051831;28;20036;-69
2022/06/18 02:36:14;;;;;;;10.48;4.60;;;;;;;;;;5052882;28;20025;-69
2022/06/18 02:38:39;;;;;;;6.50;4.53;;;;;;;;;;5051065;28;20504;-69
2022/06/18 02:41:04;;;;;;;8.73;5.00;;;;;;;;;;5050296;28;20031;-69
2022/06/18 02:43:30;;;;;;;6.50;4.60;;;;;;;;;;5051798;28;20025;-68
2022/06/18 02:45:56;;;;;;;10.07;5.03;;;;;;;;;;5051965;28;20028;-69
2022/06/18 02:48:24;;;;;;;7.35;4.75;;;;;;;;;;5046314;28;20369;-69
2022/06/18 02:50:49;;;;;;;8.15;4.50;;;;;;;;;;5050486;28;20112;-69
2022/06/18 02:53:14;;;;;;;9.15;4.60;;;;;;;;;;5052309;28;20599;-69
2022/06/18 02:55:41;;;;;;;7.55;4.80;;;;;;;;;;5052950;28;20033;-69
2022/06/18 02:58:09;;;;;;;12.07;4.82;;;;;;;;;;5051029;28;20044;-68
2022/06/18 03:00:38;;;;;;;7.53;5.15;;;;;;;;;;5050212;28;20075;-69
2022/06/18 03:03:08;;;;;;;10.73;5.07;;;;;;;;;;5050749;28;20029;-69
2022/06/18 03:05:34;;;;;;;7.97;4.60;;;;;;;;;;5050768;28;20056;-69
2022/06/18 03:07:59;;;;;;;8.77;4.57;;;;;;;;;;5050910;28;20064;-68
2022/06/18 03:13:08;;;;;;;6.25;4.38;;;;;;;;;;5041579;28;20098;-68
2022/06/18 03:15:34;;;;;;;10.75;4.75;;;;;;;;;;5045086;28;20417;-68
2022/06/18 03:17:59;;;;;;;8.25;5.15;;;;;;;;;;5042076;28;20025;-68
2022/06/18 03:20:28;;;;;;;7.53;4.65;;;;;;;;;;5051295;28;20393;-68
2022/06/18 03:22:53;;;;;;;7.18;4.95;;;;;;;;;;5051334;28;20032;-69
2022/06/18 03:25:19;;;;;;;10.70;5.18;;;;;;;;;;5051119;28;20106;-69
2022/06/18 03:27:44;;;;;;;9.07;5.10;;;;;;;;;;5050763;28;20028;-68
2022/06/18 03:30:11;;;;;;;9.38;5.10;;;;;;;;;;5051494;28;20033;-68
2022/06/18 03:32:36;;;;;;;7.90;4.78;;;;;;;;;;5049370;28;20040;-68
2022/06/18 03:35:02;;;;;;;10.40;5.28;;;;;;;;;;5046060;28;20449;-68
2022/06/18 03:37:27;;;;;;;7.47;4.80;;;;;;;;;;5050465;28;20040;-68
2022/06/18 03:39:52;;;;;;;8.15;5.13;;;;;;;;;;5049947;28;20554;-68
2022/06/18 03:42:17;;;;;;;6.50;4.45;;;;;;;;;;5051464;28;20112;-68
2022/06/18 03:44:42;;;;;;;8.15;5.00;;;;;;;;;;5041579;28;20472;-68
2022/06/18 03:47:08;;;;;;;6.85;4.53;;;;;;;;;;5050539;28;20025;-69
2022/06/18 03:49:34;;;;;;;6.68;4.60;;;;;;;;;;5051009;28;20457;-68
2022/06/18 03:52:00;;;;;;;7.10;4.70;;;;;;;;;;5050269;28;20460;-68
2022/06/18 03:54:25;;;;;;;7.32;4.80;;;;;;;;;;5043874;28;20171;-68
2022/06/18 03:56:51;;;;;;;7.28;4.47;;;;;;;;;;5051425;28;20056;-68
2022/06/18 03:59:16;;;;;;;11.18;5.00;;;;;;;;;;5039854;28;20032;-68
2022/06/18 04:01:42;;;;;;;10.48;4.95;;;;;;;;;;5048080;28;20029;-68
2022/06/18 04:04:08;;;;;;;8.85;4.38;;;;;;;;;;5051627;28;20068;-69
2022/06/18 04:06:34;;;;;;;12.82;4.68;;;;;;;;;;5024863;28;20045;-69
2022/06/18 04:08:59;;;;;;;6.30;4.40;;;;;;;;;;5051950;28;20347;-68
2022/06/18 04:11:24;;;;;;;10.90;4.82;;;;;;;;;;5049381;28;20025;-69
2022/06/18 04:13:49;;;;;;;7.72;4.30;;;;;;;;;;5043279;28;20060;-68
2022/06/18 04:16:15;;;;;;;12.40;4.03;;;;;;;;;;5045431;28;20033;-68
2022/06/18 04:18:41;;;;;;;10.55;4.70;;;;;;;;;;5048794;28;20040;-68
2022/06/18 04:21:07;;;;;;;9.45;4.20;;;;;;;;;;5049135;28;20021;-68
2022/06/18 04:23:32;;;;;;;9.63;4.30;;;;;;;;;;5050187;28;20515;-68
2022/06/18 04:25:58;;;;;;;6.32;3.78;;;;;;;;;;5049160;28;20025;-68
2022/06/18 04:28:23;;;;;;;6.15;3.92;;;;;;;;;;5049708;28;20428;-68
2022/06/18 04:30:48;;;;;;;6.68;3.70;;;;;;;;;;5048470;28;20072;-68
2022/06/18 04:33:13;;;;;;;6.07;3.70;;;;;;;;;;5052251;28;20017;-68
2022/06/18 04:35:39;;;;;;;5.65;3.78;;;;;;;;;;5049423;28;20064;-68
2022/06/18 04:38:04;;;;;;;7.93;3.40;;;;;;;;;;5054792;28;20146;-68
2022/06/18 04:40:33;;;;;;;8.20;3.35;;;;;;;;;;5047228;28;20039;-69
2022/06/18 04:43:06;;;;;;;8.57;3.42;;;;;;;;;;5045065;28;20032;-69
2022/06/18 04:45:32;;;;;;;6.72;3.72;;;;;;;;;;5044074;28;20409;-69
2022/06/18 04:47:57;;;;;;;8.27;3.58;;;;;;;;;;5038046;28;20025;-68
2022/06/18 04:50:25;;;;;;;6.25;3.60;;;;;;;;;;5043341;28;20028;-68
2022/06/18 04:52:51;;;;;;;7.57;3.47;;;;;;;;;;5048060;28;20025;-69
2022/06/18 04:55:16;;;;;;;5.05;3.10;;;;;;;;;;5039313;28;20048;-69
2022/06/18 04:57:41;;;;;;;5.70;3.33;;;;;;;;;;5044641;28;20465;-69
2022/06/18 05:00:07;;;;;;;9.38;3.42;;;;;;;;;;5040053;28;20025;-69
2022/06/18 05:02:32;;;;;;;6.53;3.50;;;;;;;;;;5047874;28;20032;-69
2022/06/18 05:04:58;;;;;;;9.40;4.03;;;;;;;;;;5054450;28;20063;-69
2022/06/18 05:07:23;;;;;;;6.07;3.63;;;;;;;;;;5051024;28;20459;-69
2022/06/18 05:09:48;;;;;;;10.70;3.67;;;;;;;;;;5053261;28;20481;-69
2022/06/18 05:12:14;;;;;;;9.68;3.50;;;;;;;;;;5054766;28;20166;-69
2022/06/18 05:14:39;;;;;;;12.35;3.78;;;;;;;;;;5046297;28;20501;-69
2022/06/18 05:17:05;;;;;;;6.95;3.60;;;;;;;;;;5048204;28;20500;-69
2022/06/18 05:19:32;;;;;;;8.60;3.80;;;;;;;;;;5053667;28;20021;-69
2022/06/18 05:21:57;;;;;;;6.47;3.17;;;;;;;;;;5055011;28;20035;-69
2022/06/18 05:24:22;;;;;;;7.05;3.60;;;;;;;;;;5053112;28;20013;-69
2022/06/18 05:26:50;;;;;;;10.98;3.80;;;;;;;;;;5054303;28;20036;-69
2022/06/18 05:29:15;;;;;;;9.57;3.90;;;;;;;;;;5053673;28;20408;-69
2022/06/18 05:31:41;;;;;;;6.63;3.80;;;;;;;;;;5051315;28;20037;-69
2022/06/18 05:34:07;;;;;;;8.35;3.75;;;;;;;;;;5052754;28;20029;-69
2022/06/18 05:36:32;;;;;;;9.77;3.78;;;;;;;;;;5052253;28;20503;-69
2022/06/18 05:38:59;;;;;;;7.40;3.58;;;;;;;;;;5050912;28;20362;-69
2022/06/18 05:41:24;;;;;;;7.80;4.03;;;;;;;;;;5053773;28;20473;-69
2022/06/18 05:43:50;;;;;;;10.45;3.90;;;;;;;;;;5042936;28;20067;-69
2022/06/18 05:46:15;;;;;;;8.50;3.78;;;;;;;;;;5052773;28;20055;-69
2022/06/18 05:48:40;;;;;;;12.23;3.58;;;;;;;;;;5053842;28;20024;-69
2022/06/18 05:51:06;;;;;;;10.82;3.90;;;;;;;;;;5053957;28;20052;-69
2022/06/18 05:53:31;;;;;;;6.32;3.78;;;;;;;;;;5054598;28;20048;-69
2022/06/18 05:55:56;;;;;;;9.30;4.10;;;;;;;;;;5052873;28;20025;-69
2022/06/18 05:58:21;;;;;;;9.48;4.00;;;;;;;;;;5052606;28;20049;-69
2022/06/18 06:00:47;;;;;;;8.32;4.20;;;;;;;;;;5051109;28;20036;-70
2022/06/18 06:03:12;;;;;;;7.28;4.22;;;;;;;;;;5052670;28;20024;-69
2022/06/18 06:05:37;;;;;;;9.20;4.50;;;;;;;;;;5053476;28;20024;-69
2022/06/18 06:08:03;;;;;;;10.10;4.28;;;;;;;;;;5053444;28;20044;-69
2022/06/18 06:13:16;;;;;;;9.93;5.05;;;;;;;;;;5052336;28;20028;-70
2022/06/18 06:15:42;;;;;;;11.43;4.80;;;;;;;;;;5052313;28;20017;-70
2022/06/18 06:18:09;;;;;;;10.35;4.93;;;;;;;;;;5053184;28;20021;-69
2022/06/18 06:20:37;;;;;;;8.35;4.80;;;;;;;;;;5054542;28;20035;-69
2022/06/18 06:23:03;;;;;;;13.85;4.97;;;;;;;;;;5065166;28;20099;-69
2022/06/18 06:25:28;;;;;;;10.32;4.90;;;;;;;;;;5054222;28;20048;-69
2022/06/18 06:27:53;;;;;;;12.40;4.78;;;;;;;;;;5050386;28;20104;-69
2022/06/18 06:30:18;;;;;;;8.93;4.57;;;;;;;;;;5053437;28;20047;-69
2022/06/18 06:32:44;;;;;;;11.30;4.82;;;;;;;;;;5054040;28;20071;-69
2022/06/18 06:35:10;;;;;;;8.27;4.75;;;;;;;;;;5053390;28;20054;-69
2022/06/18 06:37:36;;;;;;;11.23;4.97;;;;;;;;;;5052228;28;20017;-70
2022/06/18 06:40:01;;;;;;;7.40;4.88;;;;;;;;;;5051514;28;20542;-70
2022/06/18 06:42:26;;;;;;;12.20;5.00;;;;;;;;;;5052502;28;20059;-70
2022/06/18 06:44:52;;;;;;;8.10;4.35;;;;;;;;;;5053328;28;20032;-70
2022/06/18 06:47:17;;;;;;;8.65;4.80;;;;;;;;;;5050435;28;20022;-70
2022/06/18 06:49:42;;;;;;;10.52;4.57;;;;;;;;;;5049248;28;20072;-70
2022/06/18 06:52:09;;;;;;;8.57;4.65;;;;;;;;;;5035656;28;20025;-70
2022/06/18 06:54:34;;;;;;;9.25;4.68;;;;;;;;;;5052289;28;20029;-70
2022/06/18 06:59:43;;;;;;;10.15;4.32;;;;;;;;;;5053004;28;20068;-70
2022/06/18 07:02:15;;;;;;;8.38;4.68;;;;;;;;;;5041977;28;20033;-70
2022/06/18 07:04:40;;;;;;;9.15;4.60;;;;;;;;;;5051372;28;20693;-70
2022/06/18 07:07:06;;;;;;;9.98;4.35;;;;;;;;;;5039909;28;20070;-70
2022/06/18 07:09:32;;;;;;;11.27;4.45;;;;;;;;;;5033740;28;20564;-70
2022/06/18 07:11:57;;;;;;;6.65;4.05;;;;;;;;;;5034078;28;20031;-70
2022/06/18 07:14:22;;;;;;;11.13;4.50;;;;;;;;;;5048140;28;20465;-70
2022/06/18 07:16:51;;;;;;;11.07;4.35;;;;;;;;;;5045289;28;20072;-70
2022/06/18 07:19:17;;;;;;;10.00;4.50;;;;;;;;;;5052307;28;20024;-70
2022/06/18 07:21:42;;;;;;;11.20;5.30;;;;;;;;;;5052349;28;20029;-70
2022/06/18 07:24:08;;;;;;;11.85;5.10;;;;;;;;;;5051981;28;20048;-70
2022/06/18 07:26:33;;;;;;;26.83;5.50;;;;;;;;;;5033433;28;20079;-70
2022/06/18 07:28:58;;;;;;;9.45;4.53;;;;;;;;;;5050232;28;20021;-70
2022/06/18 07:31:27;;;;;;;11.82;5.00;;;;;;;;;;5049582;28;20087;-70
2022/06/18 07:33:53;;;;;;;10.88;5.00;;;;;;;;;;5050346;28;20028;-70
2022/06/18 07:36:19;;;;;;;10.70;5.25;;;;;;;;;;5049019;28;20029;-70
2022/06/18 07:38:45;;;;;;;8.25;4.80;;;;;;;;;;5047301;28;20051;-70
2022/06/18 07:41:11;;;;;;;12.63;4.55;;;;;;;;;;5043988;28;20029;-70
2022/06/18 07:43:38;;;;;;;10.68;4.90;;;;;;;;;;5044866;28;20025;-70
2022/06/18 07:46:04;;;;;;;11.73;5.00;;;;;;;;;;5042544;28;20025;-70
2022/06/18 07:48:31;;;;;;;8.77;4.43;;;;;;;;;;5044935;28;20028;-70
2022/06/18 07:50:56;;;;;;;11.93;4.97;;;;;;;;;;5046291;28;20472;-70
2022/06/18 07:53:23;;;;;;;9.45;5.20;;;;;;;;;;5046714;28;20017;-70
2022/06/18 07:55:48;;;;;;;10.68;4.80;;;;;;;;;;5037901;28;20091;-70
2022/06/18 07:58:14;;;;;;;14.48;5.05;;;;;;;;;;5034284;28;20045;-70
2022/06/18 08:00:40;;;;;;;12.80;5.10;;;;;;;;;;5037690;28;20396;-70
2022/06/18 08:03:06;;;;;;;9.55;5.10;;;;;;;;;;5042389;28;20568;-70
2022/06/18 08:05:31;;;;;;;13.32;6.03;;;;;;;;;;5046529;28;20029;-70
2022/06/18 08:07:56;;;;;;;12.38;5.47;;;;;;;;;;5049402;28;20032;-70
2022/06/18 08:10:22;;;;;;;11.98;5.70;;;;;;;;;;5047967;28;20040;-70
2022/06/18 08:12:47;;;;;;;9.77;4.80;;;;;;;;;;5047303;28;20519;-70
2022/06/18 08:15:12;;;;;;;12.48;5.15;;;;;;;;;;5046288;28;20112;-71
2022/06/18 08:17:37;;;;;;;11.85;4.60;;;;;;;;;;5048971;28;20025;-70
2022/06/18 08:20:04;;;;;;;8.93;4.70;;;;;;;;;;5048357;28;20045;-70
2022/06/18 08:22:29;;;;;;;11.80;4.65;;;;;;;;;;5029106;28;20493;-70
2022/06/18 08:24:54;;;;;;;11.20;4.78;;;;;;;;;;5046786;28;20067;-70
2022/06/18 08:27:20;;;;;;;8.20;4.40;;;;;;;;;;5045157;28;20120;-70
2022/06/18 08:29:45;;;;;;;23.35;5.20;;;;;;;;;;5046635;28;20073;-70
2022/06/18 08:32:11;;;;;;;10.63;4.70;;;;;;;;;;5044196;28;20033;-70
2022/06/18 08:34:36;;;;;;;14.60;5.20;;;;;;;;;;5046483;28;20024;-70
2022/06/18 08:37:03;;;;;;;14.80;6.68;;;;;;;;;;5047842;28;20036;-70
2022/06/18 08:39:28;;;;;;;14.93;4.65;;;;;;;;;;5047595;28;20680;-70
2022/06/18 08:41:59;;;;;;;9.07;4.53;;;;;;;;;;5046257;28;20029;-70
2022/06/18 08:44:34;;;;;;;10.55;4.53;;;;;;;;;;5045206;28;20051;-70
2022/06/18 08:47:25;;;;;;;9.80;4.57;;;;;;;;;;5039301;28;20396;-70
2022/06/18 08:49:50;;;;;;;10.85;4.40;;;;;;;;;;5036820;28;20595;-70
2022/06/18 08:52:27;;;;;;;9.13;4.07;;;;;;;;;;5047275;28;20021;-70
2022/06/18 08:54:57;;;;;;;8.00;3.90;;;;;;;;;;5046807;28;20290;-72
2022/06/18 08:57:34;;;;;;;13.30;4.25;;;;;;;;;;5046807;28;20054;-70
2022/06/18 09:00:05;;;;;;;10.98;4.18;;;;;;;;;;5044099;28;20044;-69
2022/06/18 09:02:38;;;;;;;10.95;4.10;;;;;;;;;;5030855;28;20037;-69
2022/06/18 09:05:03;;;;;;;9.98;3.70;;;;;;;;;;5033085;28;20120;-69
2022/06/18 09:07:32;;;;;;;12.63;4.53;;;;;;;;;;5043587;28;20135;-69
2022/06/18 09:10:04;;;;;;;10.05;4.05;;;;;;;;;;5048931;28;20476;-69
2022/06/18 09:12:40;;;;;;;9.02;4.20;;;;;;;;;;5047467;28;20040;-69
2022/06/18 09:15:12;;;;;;;9.90;4.10;;;;;;;;;;5045285;28;20108;-69
2022/06/18 09:17:49;;;;;;;10.25;4.35;;;;;;;;;;5048142;28;20024;-69
2022/06/18 09:20:19;;;;;;;8.18;3.63;;;;;;;;;;5047270;28;20048;-69
2022/06/18 09:22:44;;;;;;;;;;;;;;;;;;5045526;28;20513;-69
2022/06/18 09:25:17;;;;;;;8.98;3.70;;;;;;;;;;5047762;28;19982;-69
2022/06/18 09:27:58;;;;;;;7.75;4.22;;;;;;;;;;5042402;28;20017;-69
2022/06/18 09:30:30;;;;;;;14.35;4.15;;;;;;;;;;5047723;28;20036;-69
2022/06/18 09:32:59;;;;;;;9.77;3.90;;;;;;;;;;5043148;28;20017;-69
2022/06/18 09:35:28;;;;;;;13.45;3.75;;;;;;;;;;5030063;28;20021;-69
2022/06/18 09:38:26;;;;;;;8.13;3.00;;;;;;;;;;5040629;28;20028;-69
2022/06/18 09:40:53;;;;;;;9.52;2.83;;;;;;;;;;4996100;28;20057;-69
2022/06/18 09:43:33;;;;;;;10.10;3.40;;;;;;;;;;5045955;28;20021;-69
2022/06/18 09:46:01;;;;;;;11.20;2.60;;;;;;;;;;5045952;28;20074;-69
2022/06/18 09:48:26;;;;;;;17.15;2.90;;;;;;;;;;5037461;28;20650;-69
2022/06/18 09:50:54;;;;;;;10.05;3.00;;;;;;;;;;5049258;28;20033;-69
2022/06/18 09:53:22;;;;;;;10.98;3.30;;;;;;;;;;5051690;28;20031;-69
2022/06/18 09:55:49;;;;;;;9.63;2.55;;;;;;;;;;5039388;28;20017;-70
2022/06/18 09:58:23;;;;;;;7.20;2.72;;;;;;;;;;5046048;28;20032;-69
2022/06/18 10:00:49;;;;;;;6.15;2.67;;;;;;;;;;5030820;28;20083;-70
2022/06/18 10:09:02;;;;;;;7.70;2.72;;;;;;;;;;5048859;28;20476;-70
2022/06/18 10:11:27;;;;;;;10.45;3.15;;;;;;;;;;5048517;28;20029;-70
2022/06/18 10:13:59;;;;;;;9.03;2.80;;;;;;;;;;5050505;28;20492;-70
2022/06/18 10:16:33;;;;;;;8.23;2.70;;;;;;;;;;5046944;28;20410;-70
2022/06/18 10:19:02;;;;;;;9.70;2.45;;;;;;;;;;5037661;28;20117;-70
2022/06/18 10:21:38;;;;;;;9.80;2.50;;;;;;;;;;5050363;28;20029;-70
2022/06/18 10:24:06;;;;;;;11.35;2.35;;;;;;;;;;5049656;28;20044;-70
2022/06/18 10:27:01;;;;;;;11.90;2.70;;;;;;;;;;5063264;28;20029;-70
2022/06/18 10:29:29;;;;;;;8.73;2.88;;;;;;;;;;5027650;28;20033;-69
2022/06/18 10:32:00;;;;;;;13.10;2.92;;;;;;;;;;5047392;28;20330;-70
2022/06/18 10:34:52;;;;;;;7.85;2.28;;;;;;;;;;5037150;28;20021;-70
2022/06/18 10:37:17;;;;;;;10.95;2.80;;;;;;;;;;5046617;28;20112;-70
2022/06/18 10:39:43;;;;;;;9.18;2.50;;;;;;;;;;5046168;28;20112;-70
2022/06/18 10:42:11;;;;;;;11.05;2.67;;;;;;;;;;5044268;28;20454;-70
2022/06/18 10:44:36;;;;;;;7.80;2.40;;;;;;;;;;5047490;28;20017;-70
2022/06/18 10:47:04;;;;;;;7.75;2.55;;;;;;;;;;5048508;28;20119;-69
2022/06/18 10:49:31;;;;;;;10.98;2.60;;;;;;;;;;5046302;28;20028;-70
2022/06/18 10:51:57;;;;;;;9.85;2.58;;;;;;;;;;5046369;28;20056;-69
2022/06/18 10:54:33;;;;;;;7.90;2.38;;;;;;;;;;5047365;28;20410;-70
2022/06/18 10:56:59;;;;;;;10.00;2.45;;;;;;;;;;5046249;28;20029;-70
2022/06/18 10:59:32;;;;;;;9.88;2.38;;;;;;;;;;5049692;28;20696;-70
2022/06/18 11:02:13;;;;;;;10.63;2.65;;;;;;;;;;5048372;28;20063;-70
2022/06/18 11:04:39;;;;;;;10.98;2.40;;;;;;;;;;5048781;28;20033;-70
2022/06/18 11:07:06;;;;;;;8.40;2.20;;;;;;;;;;5051120;28;20025;-70
2022/06/18 11:09:44;;;;;;;7.80;2.13;;;;;;;;;;5042658;28;20025;-70
2022/06/18 11:12:30;;;;;;;9.75;2.50;;;;;;;;;;5033470;28;20018;-71
2022/06/18 11:14:55;;;;;;;6.95;2.22;;;;;;;;;;5044999;28;20013;-70
2022/06/18 11:17:31;;;;;;;7.97;2.10;;;;;;;;;;5048348;28;20028;-70
2022/06/18 11:20:14;;;;;;;8.23;2.55;;;;;;;;;;5047520;28;20021;-70
2022/06/18 11:22:40;;;;;;;12.65;2.60;;;;;;;;;;5046819;28;20131;-70
2022/06/18 11:25:21;;;;;;;12.25;2.55;;;;;;;;;;5045054;28;20794;-70
2022/06/18 11:27:47;;;;;;;11.55;2.40;;;;;;;;;;5044156;28;20025;-70
2022/06/18 11:30:32;;;;;;;12.43;2.28;;;;;;;;;;5047131;28;20036;-70
2022/06/18 11:32:58;;;;;;;11.20;2.35;;;;;;;;;;5040997;28;20021;-70
2022/06/18 11:35:28;;;;;;;7.45;2.15;;;;;;;;;;5044775;28;20078;-70
2022/06/18 11:37:56;;;;;;;9.13;2.55;;;;;;;;;;5044688;28;20553;-70
2022/06/18 11:40:22;;;;;;;8.40;2.42;;;;;;;;;;5048137;28;20397;-70
2022/06/18 11:42:50;;;;;;;9.27;2.40;;;;;;;;;;5049196;28;20032;-70
2022/06/18 11:45:30;;;;;;;11.43;2.35;;;;;;;;;;5045557;28;20025;-70
2022/06/18 11:48:18;;;;;;;13.05;2.75;;;;;;;;;;5042196;28;20430;-70
2022/06/18 11:50:52;;;;;;;9.07;2.40;;;;;;;;;;5047205;28;20025;-70
2022/06/18 11:53:26;;;;;;;7.20;2.30;;;;;;;;;;5048942;28;20021;-70
2022/06/18 11:55:53;;;;;;;11.85;2.60;;;;;;;;;;5051945;28;20028;-70
2022/06/18 11:58:22;;;;;;;9.13;2.70;;;;;;;;;;5062929;28;20028;-70
2022/06/18 12:01:10;;;;;;;11.43;2.80;;;;;;;;;;5049847;28;20033;-70
2022/06/18 12:03:39;;;;;;;8.05;2.50;;;;;;;;;;5049829;28;20032;-70
2022/06/18 12:06:08;;;;;;;10.32;2.40;;;;;;;;;;5047252;28;20033;-70
2022/06/18 12:08:34;;;;;;;9.68;2.55;;;;;;;;;;5047230;28;20048;-70
2022/06/18 12:11:18;;;;;;;8.55;2.42;;;;;;;;;;5046555;28;20064;-70
2022/06/18 12:13:44;;;;;;;13.05;2.58;;;;;;;;;;5044587;28;20637;-70
2022/06/18 12:16:13;;;;;;;9.57;2.25;;;;;;;;;;5046651;28;20687;-70
2022/06/18 12:18:47;;;;;;;8.60;2.30;;;;;;;;;;5044066;28;20028;-70
2022/06/18 12:21:20;;;;;;;12.35;3.00;;;;;;;;;;5047305;28;20600;-70
2022/06/18 12:23:50;;;;;;;11.10;2.45;;;;;;;;;;5046829;28;20025;-70
2022/06/18 12:26:25;;;;;;;8.38;2.47;;;;;;;;;;5038422;28;20029;-70
2022/06/18 12:29:09;;;;;;;8.75;2.45;;;;;;;;;;5034049;28;20039;-70
2022/06/18 12:31:35;;;;;;;9.52;2.85;;;;;;;;;;5038271;28;20036;-70
2022/06/18 12:34:16;;;;;;;11.48;2.63;;;;;;;;;;5045794;28;20029;-70
2022/06/18 12:36:47;;;;;;;10.45;2.70;;;;;;;;;;5036388;28;20116;-70
2022/06/18 12:39:12;;;;;;;8.70;2.42;;;;;;;;;;5046037;28;20070;-70
2022/06/18 12:41:57;;;;;;;11.20;2.23;;;;;;;;;;5029099;28;20064;-70
2022/06/18 12:44:28;;;;;;;12.95;2.25;;;;;;;;;;5048264;28;20287;-70
2022/06/18 12:47:00;;;;;;;11.73;2.42;;;;;;;;;;5047046;28;20024;-70
2022/06/18 12:49:35;;;;;;;8.85;2.25;;;;;;;;;;5044468;28;20029;-70
2022/06/18 12:52:00;;;;;;;10.15;2.90;;;;;;;;;;5043681;28;20029;-70
2022/06/18 12:54:25;;;;;;;8.80;2.10;;;;;;;;;;5046718;28;20108;-70
2022/06/18 12:56:50;;;;;;;7.17;2.30;;;;;;;;;;5043160;28;20026;-70
2022/06/18 12:59:27;;;;;;;10.10;3.10;;;;;;;;;;5045811;28;20370;-70
2022/06/18 13:01:56;;;;;;;8.93;2.40;;;;;;;;;;5046814;28;20276;-70
2022/06/18 13:04:34;;;;;;;10.10;2.58;;;;;;;;;;5048531;28;20079;-70
2022/06/18 13:07:14;;;;;;;8.80;2.25;;;;;;;;;;5045007;28;20029;-70
2022/06/18 13:09:40;;;;;;;9.00;2.50;;;;;;;;;;5038270;28;20028;-70
2022/06/18 13:12:05;;;;;;;7.73;2.50;;;;;;;;;;5045958;28;20062;-70
2022/06/18 13:14:30;;;;;;;9.10;2.70;;;;;;;;;;5045816;28;20017;-70
2022/06/18 13:17:02;;;;;;;8.57;2.53;;;;;;;;;;5046840;28;20041;-70
2022/06/18 13:19:34;;;;;;;10.57;2.65;;;;;;;;;;5042727;28;20112;-70
2022/06/18 13:22:00;;;;;;;14.73;3.63;;;;;;;;;;5046486;28;20036;-70
2022/06/18 13:30:12;;;;;;;11.00;2.67;;;;;;;;;;5040643;28;20543;-70
2022/06/18 13:32:52;;;;;;;10.10;2.63;;;;;;;;;;5050759;28;20441;-70
2022/06/18 13:35:26;;;;;;;11.25;2.53;;;;;;;;;;5044961;28;20505;-70
2022/06/18 13:37:54;;;;;;;8.82;2.50;;;;;;;;;;5049502;28;20059;-70
2022/06/18 13:40:33;;;;;;;9.63;2.80;;;;;;;;;;5044896;28;20060;-70
2022/06/18 13:43:25;;;;;;;11.25;3.03;;;;;;;;;;5049142;28;20083;-70
2022/06/18 13:46:04;;;;;;;5.57;2.05;;;;;;;;;;5026885;28;20116;-69
2022/06/18 13:48:42;;;;;;;11.15;2.70;;;;;;;;;;5050426;28;20052;-70
2022/06/18 13:51:07;;;;;;;12.55;2.50;;;;;;;;;;5050134;28;20037;-70
2022/06/18 13:53:37;;;;;;;8.13;2.33;;;;;;;;;;5048579;28;20043;-69
2022/06/18 13:56:14;;;;;;;10.13;2.55;;;;;;;;;;5050834;28;20024;-69
2022/06/18 13:58:46;;;;;;;8.80;2.22;;;;;;;;;;5047820;28;20022;-70
2022/06/18 14:01:14;;;;;;;9.05;2.38;;;;;;;;;;5052023;28;20071;-69
2022/06/18 14:03:41;;;;;;;9.82;2.30;;;;;;;;;;5048583;28;20428;-70
2022/06/18 14:06:08;;;;;;;10.35;2.50;;;;;;;;;;5049747;28;20016;-70
2022/06/18 14:08:39;;;;;;;13.77;2.25;;;;;;;;;;5051893;28;20044;-70
2022/06/18 14:11:06;;;;;;;7.32;2.25;;;;;;;;;;5049959;28;20025;-70
2022/06/18 14:13:32;;;;;;;7.60;2.05;;;;;;;;;;5048822;28;20017;-70
2022/06/18 14:16:02;;;;;;;8.75;2.65;;;;;;;;;;5046269;28;20082;-70
2022/06/18 14:18:28;;;;;;;10.63;2.13;;;;;;;;;;5042772;28;20026;-70
2022/06/18 14:21:03;;;;;;;10.15;1.98;;;;;;;;;;5046499;28;20032;-70
2022/06/18 14:23:38;;;;;;;7.20;1.77;;;;;;;;;;5046631;28;20020;-69
2022/06/18 14:26:19;;;;;;;6.47;1.80;;;;;;;;;;5048889;28;20020;-69
2022/06/18 14:28:50;;;;;;;11.82;1.90;;;;;;;;;;5048572;28;20056;-70
2022/06/18 14:31:23;;;;;;;6.22;2.05;;;;;;;;;;5050114;28;20036;-70
2022/06/18 14:34:15;;;;;;;8.65;2.00;;;;;;;;;;5043261;28;20032;-70
2022/06/18 14:36:42;;;;;;;12.73;2.30;;;;;;;;;;5011663;28;21950;-70
2022/06/18 14:39:23;;;;;;;8.32;2.10;;;;;;;;;;5048786;28;20040;-70
2022/06/18 14:41:51;;;;;;;6.65;1.77;;;;;;;;;;5050124;28;20500;-72
2022/06/18 14:44:19;;;;;;;7.15;1.75;;;;;;;;;;5054069;28;20092;-72
2022/06/18 14:46:59;;;;;;;5.90;1.80;;;;;;;;;;5072920;28;20020;-72
2022/06/18 14:52:40;;;;;;;4.78;1.50;;;;;;;;;;5109187;27;20733;-66
2022/06/18 14:55:16;;;;;;;6.55;1.80;;;;;;;;;;5042423;28;20436;-67
2022/06/18 14:57:53;;;;;;;8.43;2.00;;;;;;;;;;5044470;28;20036;-67
2022/06/18 15:00:28;;;;;;;6.05;1.85;;;;;;;;;;5042916;28;20068;-67
2022/06/18 15:02:58;;;;;;;7.93;2.08;;;;;;;;;;5042332;28;20033;-66
2022/06/18 15:05:25;;;;;;;17.83;2.38;;;;;;;;;;5029441;28;20030;-66
2022/06/18 15:07:51;;;;;;;9.57;1.98;;;;;;;;;;5039709;28;20025;-67
2022/06/18 15:10:26;;;;;;;5.75;1.52;;;;;;;;;;5039592;28;20565;-66
2022/06/18 15:12:51;;;;;;;8.20;1.75;;;;;;;;;;5035511;28;20022;-67